Time;durP1;ratioP1;P1;durP2;ratioP2;P2;SDS_P1;SDS_P2;PMS_P1;PMS_P2;Temp;Humidity;BMP_temperature;BMP_pressure;BME280_temperature;BME280_humidity;BME280_pressure;Samples;Min_cycle;Max_cycle;Signal;HPM_P1;HPM_P2
2023/12/06 00:01:03;;;;;;;6.45;3.30;;;4.80;99.90;;;;;;5017711;28;20029;-66
2023/12/06 00:03:28;;;;;;;6.97;3.22;;;4.80;99.90;;;;;;5017893;28;20025;-65
2023/12/06 00:05:54;;;;;;;6.15;3.08;;;4.80;99.90;;;;;;5018587;28;20018;-65
2023/12/06 00:08:20;;;;;;;6.63;3.88;;;4.80;99.90;;;;;;5018550;28;20022;-64
2023/12/06 00:10:47;;;;;;;5.63;3.13;;;4.80;99.90;;;;;;5017549;28;20045;-65
2023/12/06 00:13:13;;;;;;;5.75;3.65;;;4.90;99.90;;;;;;5017487;28;20062;-64
2023/12/06 00:15:38;;;;;;;5.65;3.42;;;4.80;99.90;;;;;;5018469;28;20037;-65
2023/12/06 00:18:04;;;;;;;11.38;3.65;;;4.80;99.90;;;;;;5018148;28;20159;-65
2023/12/06 00:20:29;;;;;;;5.07;2.97;;;4.80;99.90;;;;;;5017436;28;20026;-64
2023/12/06 00:22:55;;;;;;;4.18;2.90;;;4.80;99.90;;;;;;5018131;28;20029;-64
2023/12/06 00:25:20;;;;;;;4.97;2.70;;;4.80;99.90;;;;;;5018286;28;20026;-65
2023/12/06 00:27:46;;;;;;;6.00;3.50;;;4.80;99.90;;;;;;5018158;28;20026;-65
2023/12/06 00:30:11;;;;;;;5.72;3.40;;;4.80;99.90;;;;;;5017333;28;20068;-65
2023/12/06 00:32:37;;;;;;;6.00;3.45;;;4.90;99.90;;;;;;5018132;28;20030;-65
2023/12/06 00:35:03;;;;;;;4.50;2.63;;;5.00;99.90;;;;;;5017211;28;20058;-64
2023/12/06 00:37:29;;;;;;;4.05;2.50;;;4.90;99.90;;;;;;5017804;28;20030;-65
2023/12/06 00:39:54;;;;;;;4.78;3.03;;;4.90;99.90;;;;;;5017856;28;20029;-64
2023/12/06 00:42:20;;;;;;;5.35;3.03;;;4.90;99.90;;;;;;5017190;28;20029;-65
2023/12/06 00:44:45;;;;;;;5.03;2.85;;;5.00;99.90;;;;;;5017004;28;20120;-64
2023/12/06 00:47:11;;;;;;;5.22;3.20;;;5.00;99.90;;;;;;5016900;28;20026;-64
2023/12/06 00:49:36;;;;;;;4.45;2.90;;;4.90;99.90;;;;;;5018094;28;20029;-65
2023/12/06 00:52:02;;;;;;;5.70;3.42;;;4.90;99.90;;;;;;5018217;28;20030;-64
2023/12/06 00:54:28;;;;;;;5.88;3.20;;;4.90;99.90;;;;;;5017244;28;20037;-64
2023/12/06 00:56:53;;;;;;;5.15;2.65;;;5.00;99.90;;;;;;5016795;28;20026;-65
2023/12/06 00:59:19;;;;;;;5.63;3.20;;;5.20;99.90;;;;;;5018068;28;20033;-65
2023/12/06 01:01:44;;;;;;;3.92;2.47;;;5.30;99.90;;;;;;5016775;28;20033;-65
2023/12/06 01:04:10;;;;;;;4.45;2.33;;;5.30;99.90;;;;;;5016067;28;20022;-65
2023/12/06 01:06:35;;;;;;;4.45;2.70;;;5.40;99.90;;;;;;5016603;28;20026;-65
2023/12/06 01:09:01;;;;;;;2.97;2.20;;;5.40;99.90;;;;;;5018031;28;20036;-65
2023/12/06 01:11:27;;;;;;;4.75;2.60;;;5.40;99.90;;;;;;5017554;28;20065;-65
2023/12/06 01:13:52;;;;;;;4.45;2.72;;;5.30;99.90;;;;;;5017281;28;20029;-65
2023/12/06 01:16:18;;;;;;;6.45;3.50;;;5.20;99.90;;;;;;5017478;28;20036;-65
2023/12/06 01:18:43;;;;;;;3.78;2.80;;;5.30;99.90;;;;;;5016440;28;20025;-65
2023/12/06 01:21:08;;;;;;;4.80;2.50;;;5.30;99.90;;;;;;5017392;28;20034;-65
2023/12/06 01:23:34;;;;;;;3.47;2.35;;;5.20;99.90;;;;;;5016384;28;20025;-65
2023/12/06 01:25:59;;;;;;;4.55;2.60;;;5.30;99.90;;;;;;5016803;28;20018;-65
2023/12/06 01:28:25;;;;;;;4.32;2.47;;;5.20;99.90;;;;;;5016620;28;20068;-65
2023/12/06 01:30:51;;;;;;;4.15;2.63;;;5.20;99.90;;;;;;5016625;28;20026;-65
2023/12/06 01:33:16;;;;;;;3.85;2.38;;;5.20;99.90;;;;;;5016311;28;20092;-65
2023/12/06 01:35:42;;;;;;;3.05;2.03;;;5.20;99.90;;;;;;5017132;28;20025;-65
2023/12/06 01:38:07;;;;;;;4.47;2.58;;;5.30;99.90;;;;;;5017034;28;20073;-64
2023/12/06 01:40:36;;;;;;;3.78;2.50;;;5.30;99.90;;;;;;5016156;28;20049;-66
2023/12/06 01:43:01;;;;;;;4.15;2.45;;;5.20;99.90;;;;;;5017092;28;20022;-65
2023/12/06 01:45:28;;;;;;;3.70;2.40;;;5.20;99.90;;;;;;5016142;28;20096;-65
2023/12/06 01:47:54;;;;;;;2.50;1.88;;;5.30;99.90;;;;;;5016952;28;20022;-65
2023/12/06 01:50:21;;;;;;;4.20;2.30;;;5.40;99.90;;;;;;5016115;28;20029;-65
2023/12/06 01:52:47;;;;;;;3.53;2.00;;;5.50;99.90;;;;;;5016111;28;20048;-64
2023/12/06 01:55:13;;;;;;;4.22;2.33;;;5.60;99.90;;;;;;5016026;28;20030;-65
2023/12/06 01:57:39;;;;;;;3.83;2.55;;;5.60;99.90;;;;;;5016147;28;20033;-65
2023/12/06 02:00:07;;;;;;;3.15;2.03;;;5.50;99.90;;;;;;5016041;28;20032;-64
2023/12/06 02:02:33;;;;;;;2.80;1.90;;;5.40;99.90;;;;;;5016906;28;20072;-65
2023/12/06 02:04:59;;;;;;;5.45;2.10;;;5.50;99.90;;;;;;5016050;28;20121;-65
2023/12/06 02:07:27;;;;;;;3.35;1.90;;;5.50;99.90;;;;;;5016436;28;20030;-65
2023/12/06 02:09:53;;;;;;;2.22;1.52;;;5.50;99.90;;;;;;5016331;28;20084;-65
2023/12/06 02:12:18;;;;;;;2.28;1.77;;;5.40;99.90;;;;;;5015851;28;20034;-65
2023/12/06 02:14:44;;;;;;;2.45;1.52;;;5.40;99.90;;;;;;5016214;28;20030;-65
2023/12/06 02:17:10;;;;;;;2.22;1.58;;;5.50;99.90;;;;;;5019424;28;20062;-65
2023/12/06 02:19:36;;;;;;;1.45;1.25;;;5.40;99.90;;;;;;5019646;28;20026;-65
2023/12/06 02:22:02;;;;;;;3.70;1.80;;;5.50;99.90;;;;;;5020813;28;20037;-65
2023/12/06 02:24:30;;;;;;;2.58;1.85;;;5.50;99.90;;;;;;5020887;28;20022;-65
2023/12/06 02:26:56;;;;;;;2.20;1.55;;;5.50;99.90;;;;;;5020421;28;20014;-65
2023/12/06 02:29:24;;;;;;;1.45;1.35;;;5.50;99.90;;;;;;5019755;28;20029;-65
2023/12/06 02:31:50;;;;;;;2.22;0.93;;;5.50;99.90;;;;;;5019460;28;20033;-65
2023/12/06 02:34:24;;;;;;;2.40;1.67;;;5.40;99.90;;;;;;5020207;28;20022;-65
2023/12/06 02:36:54;;;;;;;1.98;1.50;;;5.40;99.90;;;;;;5019318;28;20038;-65
2023/12/06 02:39:20;;;;;;;2.05;1.30;;;5.40;99.90;;;;;;5020445;28;20022;-65
2023/12/06 02:41:46;;;;;;;2.95;1.40;;;5.50;99.90;;;;;;5019356;28;20094;-65
2023/12/06 02:44:11;;;;;;;2.92;1.42;;;5.40;99.90;;;;;;5020283;28;20029;-65
2023/12/06 02:46:37;;;;;;;4.10;1.70;;;5.40;99.90;;;;;;5020022;28;20026;-65
2023/12/06 02:49:03;;;;;;;1.50;1.30;;;5.40;99.90;;;;;;5020419;28;20030;-65
2023/12/06 02:51:29;;;;;;;3.28;1.48;;;5.40;99.90;;;;;;5019131;28;20030;-65
2023/12/06 02:53:54;;;;;;;2.35;1.65;;;5.50;99.90;;;;;;5019186;28;20097;-65
2023/12/06 02:56:21;;;;;;;1.85;1.35;;;5.40;99.90;;;;;;5019980;28;20057;-65
2023/12/06 02:58:46;;;;;;;2.15;1.73;;;5.40;99.90;;;;;;5020044;28;20052;-65
2023/12/06 03:01:12;;;;;;;3.17;1.65;;;5.50;99.90;;;;;;5019028;28;20022;-65
2023/12/06 03:03:37;;;;;;;4.25;1.42;;;5.40;99.90;;;;;;5018881;28;20025;-65
2023/12/06 03:06:03;;;;;;;1.67;1.30;;;5.40;99.90;;;;;;5019986;28;20046;-65
2023/12/06 03:08:29;;;;;;;2.20;1.50;;;5.40;99.90;;;;;;5019740;28;20029;-65
2023/12/06 03:10:54;;;;;;;3.50;1.45;;;5.50;99.90;;;;;;5020046;28;20022;-64
2023/12/06 03:13:20;;;;;;;2.00;1.40;;;5.50;99.90;;;;;;5019611;28;20029;-65
2023/12/06 03:15:45;;;;;;;1.90;1.40;;;5.40;99.90;;;;;;5018847;28;20069;-65
2023/12/06 03:18:11;;;;;;;2.95;1.55;;;5.40;99.90;;;;;;5019376;28;20026;-65
2023/12/06 03:20:36;;;;;;;3.13;1.85;;;5.40;99.90;;;;;;5018930;28;20022;-65
2023/12/06 03:23:02;;;;;;;3.28;2.10;;;5.40;99.90;;;;;;5019533;28;20076;-65
2023/12/06 03:25:28;;;;;;;5.00;2.25;;;5.40;99.90;;;;;;5019225;28;20053;-64
2023/12/06 03:27:54;;;;;;;4.10;1.67;;;5.30;99.90;;;;;;5018728;28;20076;-65
2023/12/06 03:30:20;;;;;;;2.92;1.80;;;5.30;99.90;;;;;;5018630;28;20084;-65
2023/12/06 03:32:45;;;;;;;2.47;1.63;;;5.30;99.90;;;;;;5019042;28;20026;-65
2023/12/06 03:35:11;;;;;;;3.83;2.05;;;5.40;99.90;;;;;;5018320;28;20032;-65
2023/12/06 03:37:36;;;;;;;2.75;1.92;;;5.40;99.90;;;;;;5018358;28;20034;-65
2023/12/06 03:40:02;;;;;;;3.83;2.25;;;5.30;99.90;;;;;;5018275;28;20030;-64
2023/12/06 03:42:28;;;;;;;3.53;2.20;;;5.30;99.90;;;;;;5018105;28;20026;-65
2023/12/06 03:44:53;;;;;;;2.80;1.95;;;5.20;99.90;;;;;;5018993;28;20030;-65
2023/12/06 03:47:19;;;;;;;3.05;2.10;;;5.10;99.90;;;;;;5018361;28;20057;-65
2023/12/06 03:49:44;;;;;;;6.70;2.58;;;5.00;99.90;;;;;;5017923;28;20022;-65
2023/12/06 03:52:10;;;;;;;4.13;2.30;;;5.00;99.90;;;;;;5019459;28;20057;-65
2023/12/06 03:54:36;;;;;;;7.07;2.80;;;5.10;99.90;;;;;;5017983;28;20073;-65
2023/12/06 03:57:01;;;;;;;3.50;1.98;;;5.20;99.90;;;;;;5018595;28;20034;-65
2023/12/06 03:59:27;;;;;;;4.68;2.15;;;5.30;99.90;;;;;;5019013;28;20038;-65
2023/12/06 04:01:52;;;;;;;4.53;2.55;;;5.30;99.90;;;;;;5017763;28;20029;-64
2023/12/06 04:04:18;;;;;;;3.83;2.50;;;5.30;99.90;;;;;;5018819;28;20018;-64
2023/12/06 04:06:43;;;;;;;3.97;2.70;;;5.30;99.90;;;;;;5019031;28;20029;-64
2023/12/06 04:09:10;;;;;;;4.50;2.78;;;5.30;99.90;;;;;;5018523;28;20034;-65
2023/12/06 04:11:36;;;;;;;4.53;2.88;;;5.30;99.90;;;;;;5017770;28;20049;-65
2023/12/06 04:14:03;;;;;;;7.57;3.30;;;5.30;99.90;;;;;;5017943;28;20022;-65
2023/12/06 04:16:29;;;;;;;5.70;2.90;;;5.20;99.90;;;;;;5018549;28;20096;-65
2023/12/06 04:18:55;;;;;;;8.52;3.72;;;5.20;99.90;;;;;;5018594;28;20030;-64
2023/12/06 04:21:21;;;;;;;5.43;2.88;;;5.30;99.90;;;;;;5018473;28;20014;-64
2023/12/06 04:23:48;;;;;;;7.22;3.15;;;5.20;99.90;;;;;;5017365;28;20018;-65
2023/12/06 04:26:13;;;;;;;6.75;3.65;;;5.20;99.90;;;;;;5018162;28;20018;-64
2023/12/06 04:28:39;;;;;;;9.35;3.85;;;5.10;99.90;;;;;;5017336;28;20077;-65
2023/12/06 04:31:05;;;;;;;7.70;3.38;;;5.10;99.90;;;;;;5018437;28;20041;-65
2023/12/06 04:33:30;;;;;;;7.13;3.33;;;5.10;99.90;;;;;;5018440;28;20030;-64
2023/12/06 04:35:56;;;;;;;7.80;4.25;;;5.20;99.90;;;;;;5018042;28;20033;-64
2023/12/06 04:38:21;;;;;;;7.50;3.90;;;5.10;99.90;;;;;;5018288;28;20034;-65
2023/12/06 04:40:47;;;;;;;7.70;4.28;;;5.10;99.90;;;;;;5017357;28;20045;-64
2023/12/06 04:43:13;;;;;;;8.10;4.47;;;5.10;99.90;;;;;;5017875;28;20022;-65
2023/12/06 04:45:38;;;;;;;9.80;3.88;;;5.20;99.90;;;;;;5017918;28;20028;-65
2023/12/06 04:48:04;;;;;;;17.63;4.72;;;5.20;99.90;;;;;;5016838;28;20108;-64
2023/12/06 04:50:29;;;;;;;7.13;3.63;;;5.30;99.90;;;;;;5017993;28;20026;-65
2023/12/06 04:52:56;;;;;;;8.35;4.63;;;5.20;99.90;;;;;;5016858;28;20029;-65
2023/12/06 04:55:21;;;;;;;8.05;4.25;;;5.10;99.90;;;;;;5017917;28;20018;-66
2023/12/06 04:57:47;;;;;;;7.47;4.13;;;5.20;99.90;;;;;;5017724;28;20097;-65
2023/12/06 05:00:13;;;;;;;5.57;3.35;;;5.30;99.90;;;;;;5016652;28;20030;-64
2023/12/06 05:02:39;;;;;;;8.45;4.22;;;5.20;99.90;;;;;;5017668;28;20032;-65
2023/12/06 05:05:05;;;;;;;7.47;3.88;;;5.30;99.90;;;;;;5017642;28;20014;-65
2023/12/06 05:07:31;;;;;;;6.03;3.70;;;5.30;99.90;;;;;;5017620;28;20025;-64
2023/12/06 05:09:56;;;;;;;8.07;4.22;;;5.40;99.90;;;;;;5016909;28;20098;-64
2023/12/06 05:12:22;;;;;;;7.82;4.05;;;5.30;99.90;;;;;;5017447;28;20117;-64
2023/12/06 05:14:47;;;;;;;9.18;3.72;;;5.30;99.90;;;;;;5017717;28;20044;-65
2023/12/06 05:17:13;;;;;;;5.40;3.70;;;5.20;99.90;;;;;;5016987;28;20022;-65
2023/12/06 05:19:38;;;;;;;10.25;3.90;;;5.20;99.90;;;;;;5017169;28;20049;-64
2023/12/06 05:22:04;;;;;;;6.45;3.67;;;5.20;99.90;;;;;;5017290;28;20014;-65
2023/12/06 05:24:29;;;;;;;7.65;3.75;;;5.20;99.90;;;;;;5017509;28;20026;-65
2023/12/06 05:26:55;;;;;;;5.78;3.08;;;5.20;99.90;;;;;;5016290;28;20025;-65
2023/12/06 05:29:20;;;;;;;6.65;3.45;;;5.30;99.90;;;;;;5017452;28;20041;-65
2023/12/06 05:31:46;;;;;;;5.85;3.63;;;5.30;99.90;;;;;;5017150;28;20040;-65
2023/12/06 05:34:11;;;;;;;3.80;2.53;;;5.20;99.90;;;;;;5017136;28;20034;-65
2023/12/06 05:36:37;;;;;;;3.83;2.60;;;5.20;99.90;;;;;;5040270;22;20087;-68
2023/12/06 05:39:06;;;;;;;7.80;3.10;;;5.10;99.90;;;;;;5016261;28;20034;-68
2023/12/06 05:41:32;;;;;;;4.57;2.90;;;5.00;99.90;;;;;;5017207;28;20037;-68
2023/12/06 05:43:58;;;;;;;5.25;2.28;;;4.90;99.90;;;;;;5016216;28;20037;-68
2023/12/06 05:46:23;;;;;;;3.90;2.38;;;4.80;99.90;;;;;;5016333;28;20032;-68
2023/12/06 05:48:49;;;;;;;7.18;2.60;;;4.70;99.90;;;;;;5017077;28;20026;-67
2023/12/06 05:51:14;;;;;;;4.97;3.08;;;4.80;99.90;;;;;;5016193;28;20064;-68
2023/12/06 05:53:40;;;;;;;4.93;2.65;;;4.80;99.90;;;;;;5017093;28;20026;-67
2023/12/06 05:56:06;;;;;;;6.50;2.90;;;4.80;99.90;;;;;;5017011;28;20030;-68
2023/12/06 05:58:32;;;;;;;4.90;2.67;;;4.90;99.90;;;;;;5016515;28;20045;-68
2023/12/06 06:00:58;;;;;;;5.00;3.03;;;4.80;99.90;;;;;;5016123;28;20065;-68
2023/12/06 06:03:24;;;;;;;6.45;3.42;;;4.90;99.90;;;;;;5016972;28;20053;-68
2023/12/06 06:05:49;;;;;;;7.40;2.97;;;4.90;99.90;;;;;;5016836;28;20037;-68
2023/12/06 06:08:15;;;;;;;4.45;2.83;;;4.90;99.90;;;;;;5016138;28;20068;-68
2023/12/06 06:10:40;;;;;;;6.10;3.53;;;4.90;99.90;;;;;;5016072;28;20058;-67
2023/12/06 06:13:06;;;;;;;6.28;2.60;;;4.90;99.90;;;;;;5016275;28;20120;-68
2023/12/06 06:15:31;;;;;;;7.28;3.60;;;4.80;99.90;;;;;;5015872;28;20022;-68
2023/12/06 06:17:57;;;;;;;5.68;3.35;;;4.70;99.90;;;;;;5016326;28;20030;-68
2023/12/06 06:20:22;;;;;;;5.28;2.97;;;4.60;99.90;;;;;;5015626;28;20036;-67
2023/12/06 06:22:48;;;;;;;9.30;3.05;;;4.60;99.90;;;;;;5015919;28;20026;-68
2023/12/06 06:25:14;;;;;;;5.15;2.95;;;4.60;99.90;;;;;;5017051;28;20025;-68
2023/12/06 06:27:40;;;;;;;4.72;2.83;;;4.50;99.90;;;;;;5015783;28;20021;-68
2023/12/06 06:30:06;;;;;;;6.60;3.08;;;4.40;99.90;;;;;;5016550;28;20077;-67
2023/12/06 06:32:32;;;;;;;4.82;2.72;;;4.40;99.90;;;;;;5016083;28;20069;-67
2023/12/06 06:34:57;;;;;;;6.05;3.10;;;4.30;99.90;;;;;;5016091;28;20026;-68
2023/12/06 06:37:24;;;;;;;6.38;3.03;;;4.20;99.90;;;;;;5016153;28;20033;-67
2023/12/06 06:39:49;;;;;;;4.68;2.80;;;4.10;99.90;;;;;;5016005;28;20022;-67
2023/12/06 06:42:15;;;;;;;6.85;2.78;;;4.10;99.90;;;;;;5015963;28;20092;-67
2023/12/06 06:44:40;;;;;;;4.55;3.08;;;4.00;99.90;;;;;;5015823;28;20022;-67
2023/12/06 06:47:06;;;;;;;6.72;3.15;;;3.90;99.90;;;;;;5015616;28;20026;-67
2023/12/06 06:49:32;;;;;;;5.97;3.67;;;3.80;99.90;;;;;;5015621;28;20117;-67
2023/12/06 06:51:58;;;;;;;5.40;2.63;;;3.80;99.90;;;;;;5015916;28;20053;-67
2023/12/06 06:54:24;;;;;;;5.13;3.38;;;3.90;99.90;;;;;;5015648;28;20030;-68
2023/12/06 06:56:49;;;;;;;5.82;3.67;;;3.90;99.90;;;;;;5015483;28;20026;-68
2023/12/06 06:59:15;;;;;;;5.20;3.13;;;3.90;99.90;;;;;;5015379;28;20034;-68
2023/12/06 07:01:41;;;;;;;5.28;3.45;;;4.00;99.90;;;;;;5015430;28;20018;-68
2023/12/06 07:04:07;;;;;;;6.80;3.65;;;4.00;99.90;;;;;;5019756;28;20026;-68
2023/12/06 07:06:32;;;;;;;5.65;3.22;;;4.10;99.90;;;;;;5019349;28;20044;-67
2023/12/06 07:08:58;;;;;;;5.95;3.25;;;4.10;99.90;;;;;;5019225;28;20092;-68
2023/12/06 07:11:23;;;;;;;9.20;3.70;;;4.10;99.90;;;;;;5019270;28;20045;-68
2023/12/06 07:13:49;;;;;;;6.20;3.53;;;4.20;99.90;;;;;;5019629;28;20018;-68
2023/12/06 07:16:15;;;;;;;7.40;4.28;;;4.20;99.90;;;;;;5019936;28;20065;-68
2023/12/06 07:18:41;;;;;;;6.78;3.83;;;4.30;99.90;;;;;;5018572;28;20022;-68
2023/12/06 07:21:07;;;;;;;6.82;3.70;;;4.30;99.90;;;;;;5019974;28;20025;-68
2023/12/06 07:23:33;;;;;;;7.90;4.03;;;4.30;99.90;;;;;;5018991;28;20069;-68
2023/12/06 07:25:58;;;;;;;6.80;3.70;;;4.30;99.90;;;;;;5018670;28;20026;-67
2023/12/06 07:28:24;;;;;;;7.88;3.83;;;4.20;99.90;;;;;;5018584;28;20057;-68
2023/12/06 07:30:50;;;;;;;8.63;4.28;;;4.30;99.90;;;;;;5018936;28;20025;-68
2023/12/06 07:33:15;;;;;;;9.75;4.03;;;4.30;99.90;;;;;;5018814;28;20044;-68
2023/12/06 07:35:41;;;;;;;8.25;4.65;;;4.30;99.90;;;;;;5019107;28;20022;-68
2023/12/06 07:38:09;;;;;;;10.48;5.10;;;4.30;99.90;;;;;;5018785;28;20040;-68
2023/12/06 07:40:35;;;;;;;10.35;4.97;;;4.30;99.90;;;;;;5019098;28;20022;-67
2023/12/06 07:43:01;;;;;;;12.00;5.28;;;4.30;99.90;;;;;;5018830;28;20018;-68
2023/12/06 07:45:27;;;;;;;11.57;6.15;;;4.30;99.90;;;;;;5018982;28;20017;-68
2023/12/06 07:47:52;;;;;;;11.95;5.82;;;4.40;99.90;;;;;;5018614;28;20021;-67
2023/12/06 07:50:20;;;;;;;11.57;5.45;;;4.30;99.90;;;;;;5018478;28;20029;-67
2023/12/06 07:52:47;;;;;;;9.23;4.78;;;4.20;99.90;;;;;;5018080;28;20095;-67
2023/12/06 07:55:14;;;;;;;8.98;4.65;;;4.00;99.90;;;;;;5018973;28;20050;-67
2023/12/06 07:57:39;;;;;;;12.25;5.80;;;3.90;99.90;;;;;;5017895;28;20022;-68
2023/12/06 08:00:07;;;;;;;13.90;6.38;;;3.90;99.90;;;;;;5018314;28;20033;-68
2023/12/06 08:02:34;;;;;;;15.07;6.70;;;3.90;99.90;;;;;;5018119;28;20054;-68
2023/12/06 08:05:02;;;;;;;15.23;6.85;;;4.00;99.90;;;;;;5018206;28;20025;-68
2023/12/06 08:07:28;;;;;;;14.25;5.85;;;3.90;99.90;;;;;;5018322;28;20065;-67
2023/12/06 08:09:53;;;;;;;13.50;7.05;;;3.90;99.90;;;;;;5018175;28;20061;-68
2023/12/06 08:12:19;;;;;;;18.33;6.88;;;4.00;99.90;;;;;;5018029;28;20041;-68
2023/12/06 08:14:45;;;;;;;18.08;7.95;;;3.90;99.90;;;;;;5017602;28;20041;-68
2023/12/06 08:17:11;;;;;;;18.75;7.30;;;3.90;99.90;;;;;;5017849;28;20029;-68
2023/12/06 08:19:37;;;;;;;19.83;7.75;;;3.90;99.90;;;;;;5017517;28;20141;-67
2023/12/06 08:22:02;;;;;;;16.52;7.80;;;4.00;99.90;;;;;;5017792;28;20054;-67
2023/12/06 08:24:28;;;;;;;21.08;8.60;;;4.10;99.90;;;;;;5018255;28;20029;-67
2023/12/06 08:26:53;;;;;;;19.10;8.00;;;4.10;99.90;;;;;;5017787;28;20052;-68
2023/12/06 08:29:19;;;;;;;21.40;9.00;;;4.10;99.90;;;;;;5017414;28;20061;-67
2023/12/06 08:31:44;;;;;;;20.60;8.90;;;4.00;99.90;;;;;;5017492;28;20034;-67
2023/12/06 08:34:10;;;;;;;18.10;8.13;;;4.00;99.90;;;;;;5017424;28;20040;-68
2023/12/06 08:36:35;;;;;;;19.17;8.20;;;4.20;99.90;;;;;;5017135;28;20030;-68
2023/12/06 08:39:01;;;;;;;23.45;10.18;;;4.10;99.90;;;;;;5017740;28;20133;-67
2023/12/06 08:41:27;;;;;;;24.88;10.13;;;4.00;99.90;;;;;;5017147;28;20084;-68
2023/12/06 08:43:52;;;;;;;19.92;8.80;;;4.10;99.90;;;;;;5017639;28;20044;-68
2023/12/06 08:46:19;;;;;;;24.23;10.48;;;4.10;99.90;;;;;;5017377;28;20026;-68
2023/12/06 08:48:44;;;;;;;24.48;9.88;;;4.10;99.90;;;;;;5017962;28;20029;-68
2023/12/06 08:51:10;;;;;;;20.08;8.38;;;4.10;99.90;;;;;;5017316;28;20026;-67
2023/12/06 08:53:35;;;;;;;25.77;10.20;;;4.20;99.90;;;;;;5017371;28;20026;-68
2023/12/06 08:56:01;;;;;;;22.15;10.38;;;4.30;99.90;;;;;;5017243;28;20076;-68
2023/12/06 08:58:27;;;;;;;22.83;9.52;;;4.40;99.90;;;;;;5016720;28;20030;-68
2023/12/06 09:00:53;;;;;;;22.25;10.05;;;4.40;99.90;;;;;;5017238;28;20085;-67
2023/12/06 09:03:18;;;;;;;18.70;8.13;;;4.40;99.90;;;;;;5016804;28;20029;-67
2023/12/06 09:05:44;;;;;;;25.27;10.18;;;4.40;99.90;;;;;;5017266;28;20018;-68
2023/12/06 09:08:11;;;;;;;21.80;9.15;;;4.40;99.90;;;;;;5017010;28;20049;-67
2023/12/06 09:10:38;;;;;;;20.13;9.25;;;4.30;99.90;;;;;;5016708;28;20028;-67
2023/12/06 09:13:03;;;;;;;26.20;10.57;;;4.40;99.90;;;;;;5017009;28;20029;-67
2023/12/06 09:15:29;;;;;;;21.10;9.38;;;4.40;99.90;;;;;;5017742;28;20025;-67
2023/12/06 09:17:54;;;;;;;25.05;10.95;;;4.40;99.90;;;;;;5017090;28;20048;-67
2023/12/06 09:20:20;;;;;;;25.10;10.63;;;4.30;99.90;;;;;;5016818;28;20029;-67
2023/12/06 09:22:46;;;;;;;24.20;9.82;;;4.20;99.90;;;;;;5017365;28;20030;-67
2023/12/06 09:25:11;;;;;;;20.23;8.95;;;4.20;99.90;;;;;;5017036;28;20109;-67
2023/12/06 09:27:37;;;;;;;21.88;9.63;;;4.10;99.90;;;;;;5016855;28;20024;-67
2023/12/06 09:30:03;;;;;;;22.13;9.23;;;4.10;99.90;;;;;;5016432;28;20113;-67
2023/12/06 09:32:30;;;;;;;20.83;8.57;;;4.20;99.90;;;;;;5016537;28;20026;-67
2023/12/06 09:34:55;;;;;;;22.30;9.98;;;4.30;99.90;;;;;;5016652;28;20026;-67
2023/12/06 09:37:21;;;;;;;20.45;8.85;;;4.30;99.90;;;;;;5017449;28;20060;-67
2023/12/06 09:39:46;;;;;;;16.33;7.93;;;4.30;99.90;;;;;;5016893;28;20121;-67
2023/12/06 09:42:12;;;;;;;17.75;7.97;;;4.40;99.90;;;;;;5016513;28;20021;-66
2023/12/06 09:44:39;;;;;;;20.67;8.88;;;4.60;99.90;;;;;;5016557;28;20034;-67
2023/12/06 09:47:05;;;;;;;15.60;8.38;;;4.60;99.90;;;;;;5016417;28;20049;-67
2023/12/06 09:49:31;;;;;;;21.08;8.85;;;4.70;99.90;;;;;;5016204;28;20033;-67
2023/12/06 09:52:07;;;;;;;18.15;8.77;;;4.60;99.90;;;;;;5016023;28;20079;-67
2023/12/06 09:54:32;;;;;;;17.88;7.72;;;4.50;99.90;;;;;;5016945;28;20021;-67
2023/12/06 09:56:58;;;;;;;18.30;8.75;;;4.60;99.90;;;;;;5016075;28;20079;-67
2023/12/06 09:59:24;;;;;;;18.15;8.32;;;4.60;99.90;;;;;;5016072;28;20033;-67
2023/12/06 10:01:49;;;;;;;18.13;8.23;;;4.50;99.90;;;;;;5016102;28;20026;-68
2023/12/06 10:04:15;;;;;;;16.42;7.78;;;4.50;99.90;;;;;;5016407;28;20022;-69
2023/12/06 10:06:42;;;;;;;18.50;8.52;;;4.40;99.90;;;;;;5016766;28;20029;-67
2023/12/06 10:09:10;;;;;;;17.98;7.95;;;4.40;99.90;;;;;;5016303;28;20092;-68
2023/12/06 10:11:36;;;;;;;21.58;8.73;;;4.60;99.90;;;;;;5016135;28;20036;-68
2023/12/06 10:14:02;;;;;;;22.75;9.82;;;4.60;99.90;;;;;;5016858;28;20030;-68
2023/12/06 10:16:28;;;;;;;19.83;8.20;;;4.50;99.90;;;;;;5015859;28;20037;-68
2023/12/06 10:18:54;;;;;;;20.00;9.40;;;4.60;99.90;;;;;;5016031;28;20025;-68
2023/12/06 10:21:20;;;;;;;22.30;9.23;;;4.50;99.90;;;;;;5015902;28;20033;-68
2023/12/06 10:23:57;;;;;;;20.35;7.95;;;4.50;99.90;;;;;;5015928;28;20026;-68
2023/12/06 10:26:29;;;;;;;21.20;8.70;;;4.60;99.90;;;;;;5016918;28;20018;-67
2023/12/06 10:28:54;;;;;;;20.77;8.43;;;4.50;99.90;;;;;;5015969;28;20082;-68
2023/12/06 10:31:20;;;;;;;19.08;7.68;;;4.50;99.90;;;;;;5015901;28;20033;-68
2023/12/06 10:33:51;;;;;;;23.13;9.45;;;4.60;99.90;;;;;;5015817;28;20022;-69
2023/12/06 10:36:17;;;;;;;20.35;8.10;;;4.50;99.90;;;;;;5016032;28;20022;-68
2023/12/06 10:38:44;;;;;;;21.88;8.43;;;4.70;99.90;;;;;;5018776;28;20041;-67
2023/12/06 10:41:11;;;;;;;17.98;8.07;;;4.70;99.90;;;;;;5019802;28;20018;-62
2023/12/06 10:43:37;;;;;;;21.92;8.60;;;4.70;99.90;;;;;;5019351;28;20076;-62
2023/12/06 10:46:04;;;;;;;21.58;7.95;;;4.70;99.90;;;;;;5019433;28;20033;-62
2023/12/06 10:48:31;;;;;;;18.75;7.82;;;4.80;99.90;;;;;;5019571;28;20026;-62
2023/12/06 10:50:57;;;;;;;18.55;7.82;;;4.80;99.90;;;;;;5019855;28;20028;-62
2023/12/06 10:53:23;;;;;;;21.45;9.45;;;4.80;99.90;;;;;;5020179;28;20026;-62
2023/12/06 10:55:49;;;;;;;22.27;7.63;;;4.80;99.90;;;;;;5019196;28;20022;-62
2023/12/06 10:58:16;;;;;;;19.88;8.15;;;4.70;99.90;;;;;;5019387;28;20018;-62
2023/12/06 11:00:43;;;;;;;18.67;8.77;;;4.80;99.90;;;;;;5020045;28;20026;-62
2023/12/06 11:03:09;;;;;;;19.83;8.48;;;4.90;99.90;;;;;;5019885;28;20108;-62
2023/12/06 11:05:41;;;;;;;16.08;7.68;;;4.80;99.90;;;;;;5019345;28;20022;-62
2023/12/06 11:08:12;;;;;;;19.42;8.13;;;4.80;99.90;;;;;;5019082;28;20026;-62
2023/12/06 11:10:48;;;;;;;20.67;9.45;;;4.90;99.90;;;;;;5019151;28;20038;-62
2023/12/06 11:13:51;;;;;;;23.00;9.90;;;4.90;99.90;;;;;;5019921;28;20026;-62
2023/12/06 11:16:33;;;;;;;25.77;10.63;;;4.90;99.90;;;;;;5019720;28;20093;-62
2023/12/06 11:18:59;;;;;;;28.83;11.50;;;4.80;99.90;;;;;;5019499;28;20033;-62
2023/12/06 11:21:25;;;;;;;26.90;9.65;;;4.80;99.90;;;;;;5019673;28;20046;-62
2023/12/06 11:23:51;;;;;;;25.00;10.57;;;4.80;99.90;;;;;;5019825;28;20029;-62
2023/12/06 11:26:17;;;;;;;25.27;10.43;;;4.80;99.90;;;;;;5019466;28;20108;-62
2023/12/06 11:28:43;;;;;;;26.40;10.70;;;4.70;99.90;;;;;;5019380;28;20050;-62
2023/12/06 11:31:13;;;;;;;23.10;10.38;;;4.70;99.90;;;;;;5019404;28;20026;-62
2023/12/06 11:33:39;;;;;;;25.65;10.50;;;4.80;99.90;;;;;;5018552;28;20033;-62
2023/12/06 11:36:13;;;;;;;24.48;10.40;;;4.80;99.90;;;;;;5018320;28;20022;-61
2023/12/06 11:38:40;;;;;;;27.10;11.13;;;4.70;99.90;;;;;;5032460;22;20046;-62
2023/12/06 11:41:06;;;;;;;29.30;11.82;;;4.80;99.90;;;;;;5018431;28;20081;-62
2023/12/06 11:43:33;;;;;;;28.13;11.23;;;4.70;99.90;;;;;;5019014;28;20022;-62
2023/12/06 11:46:03;;;;;;;28.67;11.38;;;4.70;99.90;;;;;;5018087;28;20030;-62
2023/12/06 11:48:28;;;;;;;26.80;11.35;;;4.60;99.90;;;;;;5018325;28;20022;-62
2023/12/06 11:50:57;;;;;;;27.15;12.32;;;4.70;99.90;;;;;;5018820;28;20030;-62
2023/12/06 11:53:24;;;;;;;23.00;10.77;;;4.80;99.90;;;;;;5019154;28;20026;-62
2023/12/06 11:55:50;;;;;;;25.13;10.88;;;4.90;99.90;;;;;;5018999;28;20088;-62
2023/12/06 11:58:15;;;;;;;26.83;11.32;;;4.90;99.90;;;;;;5017809;28;20018;-62
2023/12/06 12:00:42;;;;;;;26.55;11.02;;;4.80;99.90;;;;;;5018325;28;20037;-62
2023/12/06 12:03:09;;;;;;;25.38;10.15;;;4.80;99.90;;;;;;5018697;28;20037;-62
2023/12/06 12:05:35;;;;;;;25.60;11.00;;;4.80;99.90;;;;;;5018603;28;20044;-62
2023/12/06 12:08:02;;;;;;;24.08;10.80;;;4.80;99.90;;;;;;5017894;28;20085;-62
2023/12/06 12:10:28;;;;;;;32.53;12.15;;;4.90;99.90;;;;;;5017793;28;20111;-62
2023/12/06 12:12:54;;;;;;;31.38;12.68;;;4.90;99.90;;;;;;5017678;28;20037;-62
2023/12/06 12:15:19;;;;;;;29.52;12.45;;;4.90;99.90;;;;;;5017499;28;20080;-62
2023/12/06 12:17:45;;;;;;;28.25;13.27;;;4.90;99.90;;;;;;5018952;28;20113;-62
2023/12/06 12:20:12;;;;;;;27.95;12.05;;;4.90;99.90;;;;;;5018238;28;20054;-62
2023/12/06 12:22:44;;;;;;;31.85;13.32;;;4.90;99.90;;;;;;5018513;28;20104;-63
2023/12/06 12:25:10;;;;;;;27.27;11.52;;;4.80;99.90;;;;;;5018449;28;20030;-62
2023/12/06 12:27:36;;;;;;;27.13;11.88;;;4.90;99.90;;;;;;5017600;28;20024;-62
2023/12/06 12:30:03;;;;;;;29.05;12.23;;;5.00;99.90;;;;;;5018212;28;20032;-62
2023/12/06 12:32:31;;;;;;;27.95;11.20;;;5.10;99.90;;;;;;5017216;28;20037;-62
2023/12/06 12:34:58;;;;;;;28.23;11.52;;;5.00;99.90;;;;;;5018093;28;20053;-62
2023/12/06 12:37:25;;;;;;;27.40;11.15;;;5.10;99.90;;;;;;5016968;28;20030;-62
2023/12/06 12:39:51;;;;;;;31.80;13.02;;;5.00;99.90;;;;;;5017932;28;20025;-63
2023/12/06 12:42:16;;;;;;;24.30;10.57;;;5.00;99.90;;;;;;5016948;28;20018;-62
2023/12/06 12:44:42;;;;;;;26.88;11.85;;;5.10;99.90;;;;;;5018136;28;20025;-62